KMIA/MIA METAR and TAF weather

Enter ICAO airport designator
Station Type Date Time Source
KMIA METAR 2018/12/19 09:53 UTC NOAA

KMIA 190953Z 00000KT 10SM FEW030 FEW040 SCT250 17/16 A3003 RMK AO2 SLP168 T01670161 $


Station Type Date Time Source
KMIA Decoded METAR 2018/12/19 09:53 UTC NOAA

MIAMI INTERNATIONAL AIRPORT , FL, United States (KMIA) 25-47N 080-19W 8M
Dec 19, 2018 - 04:53 AM EST / 2018.12.19 0953 UTC
Wind: Calm:0
Visibility: 10 mile(s):0
Sky conditions: partly cloudy
Temperature: 62.1 F (16.7 C)
Dew Point: 61.0 F (16.1 C)
Relative Humidity: 96%
Pressure (altimeter): 30.03 in. Hg (1016 hPa)
ob: KMIA 190953Z 00000KT 10SM FEW030 FEW040 SCT250 17/16 A3003 RMK AO2 SLP168 T01670161
cycle: 10

Station Type Date Time Source
KMIA TAF 2018/12/19 09:58 UTC NOAA

TAF
AMD KMIA 190858Z 1909/2012 VRB03KT P6SM FEW030 SCT250
FM191400 12010KT P6SM SCT035 SCT250
FM200000 11006KT P6SM BKN250


Example: see airport list